Time;durP1;ratioP1;P1;durP2;ratioP2;P2;SDS_P1;SDS_P2;PMS_P1;PMS_P2;Temp;Humidity;BMP_temperature;BMP_pressure;BME280_temperature;BME280_humidity;BME280_pressure;Samples;Min_cycle;Max_cycle;Signal;HPM_P1;HPM_P2
2023/02/15 00:01:52;;;;;;;127.07;72.97;;;1.80;99.90;;;;;;5042903;28;37171;-77
2023/02/15 00:04:20;;;;;;;150.17;76.93;;;1.80;99.90;;;;;;5055450;28;39085;-77
2023/02/15 00:06:47;;;;;;;133.43;72.57;;;1.80;99.90;;;;;;5064204;28;36362;-76
2023/02/15 00:09:13;;;;;;;138.00;75.37;;;1.80;99.90;;;;;;5047625;28;38870;-77
2023/02/15 00:11:44;;;;;;;154.70;73.30;;;1.80;99.90;;;;;;5048643;28;37270;-76
2023/02/15 00:14:22;;;;;;;138.30;71.53;;;1.70;99.90;;;;;;5047818;28;38004;-77
2023/02/15 00:16:50;;;;;;;145.03;74.83;;;1.70;99.90;;;;;;5057802;28;36269;-77
2023/02/15 00:19:18;;;;;;;142.20;75.00;;;1.70;99.90;;;;;;5045767;28;38905;-76
2023/02/15 00:21:46;;;;;;;131.20;72.03;;;1.70;99.90;;;;;;5067010;28;38115;-76
2023/02/15 00:24:13;;;;;;;134.90;71.23;;;1.70;99.90;;;;;;5050296;28;38376;-78
2023/02/15 00:26:41;;;;;;;124.77;70.13;;;1.70;99.90;;;;;;5049035;28;36257;-77
2023/02/15 00:29:08;;;;;;;140.50;75.40;;;1.70;99.90;;;;;;5054009;28;38913;-77
2023/02/15 00:31:35;;;;;;;148.27;74.47;;;1.70;99.90;;;;;;5059686;28;39407;-76
2023/02/15 00:34:06;;;;;;;151.23;75.23;;;1.60;99.90;;;;;;5061278;28;37950;-77
2023/02/15 00:36:32;;;;;;;146.70;75.93;;;1.50;99.90;;;;;;5057106;28;46932;-77
2023/02/15 00:38:59;;;;;;;149.43;76.03;;;1.40;99.90;;;;;;5046526;28;38619;-78
2023/02/15 00:41:25;;;;;;;154.57;78.60;;;1.40;99.90;;;;;;5076570;28;37249;-78
2023/02/15 00:43:51;;;;;;;148.80;77.37;;;1.50;99.90;;;;;;5052314;28;36892;-78
2023/02/15 00:46:17;;;;;;;154.50;77.73;;;1.40;99.90;;;;;;5056465;28;37712;-78
2023/02/15 00:48:43;;;;;;;143.87;75.87;;;1.40;99.90;;;;;;5049331;28;37404;-77
2023/02/15 00:51:09;;;;;;;148.40;77.83;;;1.40;99.90;;;;;;5047187;28;38413;-78
2023/02/15 00:53:35;;;;;;;144.23;73.23;;;1.30;99.90;;;;;;5042749;28;37132;-78
2023/02/15 00:56:01;;;;;;;140.13;74.00;;;1.30;99.90;;;;;;5042391;28;37233;-78
2023/02/15 00:58:28;;;;;;;139.57;71.67;;;1.30;99.90;;;;;;5043786;28;38831;-78
2023/02/15 01:00:54;;;;;;;150.67;73.03;;;1.30;99.90;;;;;;5059349;28;38268;-79
2023/02/15 01:03:21;;;;;;;145.00;77.67;;;1.30;99.90;;;;;;5059379;28;38707;-77
2023/02/15 01:05:48;;;;;;;152.53;75.80;;;1.30;99.90;;;;;;5058470;28;37403;-77
2023/02/15 01:08:15;;;;;;;147.67;74.93;;;1.20;99.90;;;;;;5057774;28;38773;-77
2023/02/15 01:10:43;;;;;;;148.50;73.10;;;1.20;99.90;;;;;;5047097;28;37310;-78
2023/02/15 01:13:09;;;;;;;123.53;65.73;;;1.20;99.90;;;;;;5057440;28;37093;-78
2023/02/15 01:15:36;;;;;;;132.93;68.80;;;1.10;99.90;;;;;;5055256;28;38374;-78
2023/02/15 01:18:02;;;;;;;132.50;70.97;;;1.10;99.90;;;;;;5057061;28;38188;-79
2023/02/15 01:20:29;;;;;;;137.13;71.50;;;1.10;99.90;;;;;;5042789;28;38177;-77
2023/02/15 01:22:56;;;;;;;120.83;65.40;;;1.10;99.90;;;;;;5058076;28;38446;-78
2023/02/15 01:25:23;;;;;;;136.83;70.10;;;1.10;99.90;;;;;;5058974;28;36299;-79
2023/02/15 01:27:50;;;;;;;132.70;67.53;;;1.10;99.90;;;;;;5057572;28;38857;-76
2023/02/15 01:30:16;;;;;;;124.43;66.37;;;1.10;99.90;;;;;;5069856;28;37238;-80
2023/02/15 01:32:43;;;;;;;139.23;69.57;;;1.10;99.90;;;;;;5068105;28;36764;-78
2023/02/15 01:35:09;;;;;;;131.07;65.47;;;1.00;99.90;;;;;;5063309;28;35961;-81
2023/02/15 01:37:36;;;;;;;122.27;63.70;;;1.00;99.90;;;;;;5067172;28;37183;-79
2023/02/15 01:40:07;;;;;;;117.90;65.20;;;1.00;99.90;;;;;;5057320;28;37222;-78
2023/02/15 01:42:33;;;;;;;120.57;64.70;;;1.10;99.90;;;;;;5051010;28;47683;-79
2023/02/15 01:45:02;;;;;;;123.40;65.40;;;1.10;99.90;;;;;;5055116;28;37064;-78
2023/02/15 01:47:41;;;;;;;134.33;70.20;;;1.00;99.90;;;;;;5054288;28;38924;-78
2023/02/15 01:50:12;;;;;;;124.03;64.23;;;1.00;99.90;;;;;;5064038;28;37471;-78
2023/02/15 01:52:46;;;;;;;117.97;61.97;;;1.00;99.90;;;;;;5063362;28;36938;-78
2023/02/15 01:55:13;;;;;;;114.70;63.40;;;1.00;99.90;;;;;;5063094;28;36940;-78
2023/02/15 01:57:40;;;;;;;119.90;65.30;;;1.00;99.90;;;;;;5050226;28;37797;-78
2023/02/15 02:00:09;;;;;;;116.47;62.07;;;1.00;99.90;;;;;;5050446;28;39710;-78
2023/02/15 02:02:35;;;;;;;112.03;59.70;;;0.90;99.90;;;;;;5525346;22;36739;-79
2023/02/15 02:05:06;;;;;;;109.83;60.03;;;0.90;99.90;;;;;;5025466;28;36384;-79
2023/02/15 02:07:36;;;;;;;114.97;62.53;;;0.90;99.90;;;;;;5048814;28;48155;-80
2023/02/15 02:10:04;;;;;;;104.90;57.70;;;0.80;99.90;;;;;;5049336;28;37407;-79
2023/02/15 02:12:31;;;;;;;111.80;60.90;;;0.80;99.90;;;;;;5044471;28;47837;-80
2023/02/15 02:14:59;;;;;;;113.37;61.43;;;0.80;99.90;;;;;;5042615;28;37811;-80
2023/02/15 02:17:34;;;;;;;106.13;55.17;;;0.70;99.90;;;;;;5044876;28;38843;-79
2023/02/15 02:20:24;;;;;;;105.57;57.90;;;0.70;99.90;;;;;;5041472;28;37991;-79
2023/02/15 02:23:27;;;;;;;109.47;58.87;;;0.70;99.90;;;;;;5042247;28;46987;-79
2023/02/15 02:26:06;;;;;;;111.13;58.20;;;0.70;99.90;;;;;;5039027;28;48196;-79
2023/02/15 02:28:48;;;;;;;114.37;59.77;;;0.70;99.90;;;;;;5041653;28;47378;-80
2023/02/15 02:31:20;;;;;;;97.28;54.97;;;0.60;99.90;;;;;;5043737;28;39142;-80
2023/02/15 02:34:14;;;;;;;105.28;54.97;;;0.70;99.90;;;;;;5063857;28;36657;-80
2023/02/15 02:36:55;;;;;;;105.03;56.27;;;0.70;99.90;;;;;;5049940;28;48384;-79
2023/02/15 02:39:25;;;;;;;101.80;56.17;;;0.60;99.90;;;;;;5047255;28;37284;-79
2023/02/15 02:41:51;;;;;;;98.33;53.47;;;0.60;99.90;;;;;;5049570;28;37023;-79
2023/02/15 02:44:23;;;;;;;106.63;57.00;;;0.60;99.90;;;;;;5049192;28;38106;-79
2023/02/15 02:47:14;;;;;;;110.47;62.15;;;0.60;99.90;;;;;;5046077;28;36616;-80
2023/02/15 02:49:42;;;;;;;101.80;55.60;;;0.60;99.90;;;;;;5044469;28;48331;-79
2023/02/15 02:52:46;;;;;;;100.20;55.47;;;0.60;99.90;;;;;;5049388;28;37337;-79
2023/02/15 02:55:51;;;;;;;113.17;57.17;;;0.50;99.90;;;;;;5041364;28;39274;-79
2023/02/15 02:58:33;;;;;;;104.87;56.10;;;0.50;99.90;;;;;;4989998;28;36956;-79
2023/02/15 03:01:30;;;;;;;106.38;56.58;;;0.40;99.90;;;;;;5046728;28;37819;-80
2023/02/15 03:04:01;;;;;;;95.40;52.13;;;0.40;99.90;;;;;;5033234;28;47592;-79
2023/02/15 03:06:39;;;;;;;97.50;52.57;;;0.40;99.90;;;;;;5046019;28;47935;-80
2023/02/15 03:09:15;;;;;;;121.13;58.53;;;0.40;99.90;;;;;;5047776;28;37203;-80
2023/02/15 03:11:43;;;;;;;105.10;54.70;;;0.50;99.90;;;;;;5042932;28;37888;-79
2023/02/15 03:14:10;;;;;;;102.83;57.43;;;0.60;99.90;;;;;;5045697;28;37366;-79
2023/02/15 03:16:39;;;;;;;113.27;59.17;;;0.60;99.90;;;;;;5047493;28;37937;-79
2023/02/15 03:19:10;;;;;;;101.77;53.60;;;0.50;99.90;;;;;;5044322;28;36879;-80
2023/02/15 03:21:41;;;;;;;99.60;55.03;;;0.40;99.90;;;;;;5045700;28;40523;-80
2023/02/15 03:24:13;;;;;;;103.28;54.30;;;0.40;99.90;;;;;;5046682;28;38498;-79
2023/02/15 03:26:45;;;;;;;111.87;55.80;;;0.40;99.90;;;;;;5044993;28;36858;-79
2023/02/15 03:29:12;;;;;;;105.32;57.42;;;0.40;99.90;;;;;;5044364;28;37660;-80
2023/02/15 03:31:43;;;;;;;107.87;57.10;;;0.40;99.90;;;;;;5061964;28;39340;-79
2023/02/15 03:34:12;;;;;;;100.67;55.10;;;0.40;99.90;;;;;;5045644;28;37220;-80
2023/02/15 03:36:57;;;;;;;104.77;56.27;;;0.30;99.90;;;;;;5045851;28;36846;-79
2023/02/15 03:39:38;;;;;;;113.67;57.67;;;0.30;99.90;;;;;;5049999;28;38042;-79
2023/02/15 03:42:10;;;;;;;105.93;54.20;;;0.30;99.90;;;;;;5047396;28;37755;-80
2023/02/15 03:44:44;;;;;;;93.65;52.97;;;0.20;99.90;;;;;;5045261;28;37424;-80
2023/02/15 03:47:17;;;;;;;108.10;56.60;;;0.30;99.90;;;;;;5043737;28;36281;-79
2023/02/15 03:49:59;;;;;;;105.07;55.73;;;0.20;99.90;;;;;;5042305;28;37642;-80
2023/02/15 03:52:27;;;;;;;98.80;54.63;;;0.20;99.90;;;;;;5040154;28;38358;-79
2023/02/15 03:54:54;;;;;;;115.50;57.10;;;0.20;99.90;;;;;;5042726;28;36881;-79
2023/02/15 04:03:25;;;;;;;116.00;57.43;;;0.10;99.90;;;;;;5015253;28;49187;-79
2023/02/15 04:05:51;;;;;;;111.80;57.30;;;0.10;99.90;;;;;;5043709;28;38412;-79
2023/02/15 04:08:18;;;;;;;105.37;56.23;;;0.10;99.90;;;;;;5051066;28;40572;-80
2023/02/15 04:10:53;;;;;;;108.90;58.17;;;0.10;99.90;;;;;;5050379;28;37463;-80
2023/02/15 04:13:29;;;;;;;104.67;55.93;;;0.10;99.90;;;;;;5045698;28;38117;-79
2023/02/15 04:16:04;;;;;;;109.87;55.60;;;0.10;99.90;;;;;;5035409;28;38303;-80
2023/02/15 04:26:54;;;;;;;97.83;53.37;;;-0.10;99.90;;;;;;5039575;28;40066;-80
2023/02/15 04:29:22;;;;;;;102.40;53.57;;;-0.10;99.90;;;;;;5039808;28;38380;-80
2023/02/15 04:31:48;;;;;;;111.90;55.97;;;-0.10;99.90;;;;;;5037128;28;40201;-80
2023/02/15 04:34:15;;;;;;;100.47;54.97;;;0.00;99.90;;;;;;5039390;28;38863;-80
2023/02/15 04:36:41;;;;;;;109.30;55.13;;;-0.10;99.90;;;;;;5038396;28;38779;-80
2023/02/15 04:39:08;;;;;;;111.40;57.23;;;-0.10;99.90;;;;;;5042206;28;38311;-80
2023/02/15 04:41:34;;;;;;;98.87;52.60;;;-0.20;99.90;;;;;;5039944;28;36185;-80
2023/02/15 04:44:01;;;;;;;93.80;52.07;;;-0.20;99.90;;;;;;5039811;28;38929;-80
2023/02/15 04:46:28;;;;;;;99.00;52.87;;;-0.20;99.90;;;;;;5037895;28;47173;-80
2023/02/15 04:48:55;;;;;;;98.63;51.97;;;-0.20;99.90;;;;;;5038115;28;37816;-80
2023/02/15 04:51:21;;;;;;;93.37;51.70;;;-0.20;99.90;;;;;;5043589;28;37292;-80
2023/02/15 04:53:47;;;;;;;100.60;54.30;;;-0.20;99.90;;;;;;5041019;28;38740;-80
2023/02/15 04:56:13;;;;;;;99.70;53.63;;;-0.20;99.90;;;;;;5046689;28;38406;-80
2023/02/15 04:58:42;;;;;;;101.20;52.70;;;-0.20;99.90;;;;;;5054839;28;36846;-80
2023/02/15 05:01:09;;;;;;;98.97;51.63;;;-0.20;99.90;;;;;;5046888;28;37848;-80
2023/02/15 05:03:36;;;;;;;99.07;53.60;;;-0.20;99.90;;;;;;5045165;28;38213;-80
2023/02/15 05:06:03;;;;;;;96.10;51.80;;;-0.30;99.90;;;;;;5041127;28;37904;-80
2023/02/15 05:08:30;;;;;;;94.80;51.37;;;-0.30;99.90;;;;;;5041665;28;36567;-80
2023/02/15 05:10:56;;;;;;;91.47;51.87;;;-0.30;99.90;;;;;;5043682;28;36465;-80
2023/02/15 05:13:24;;;;;;;87.80;49.37;;;-0.30;99.90;;;;;;5042049;28;38677;-80
2023/02/15 05:15:53;;;;;;;96.93;51.33;;;-0.30;99.90;;;;;;5041420;28;37065;-79
2023/02/15 05:18:21;;;;;;;92.70;51.60;;;-0.30;99.90;;;;;;5050915;28;36836;-80
2023/02/15 05:20:48;;;;;;;87.87;47.93;;;-0.20;99.90;;;;;;5037506;28;37397;-80
2023/02/15 05:23:15;;;;;;;91.43;51.03;;;-0.20;99.90;;;;;;5042027;28;39070;-80
2023/02/15 05:28:30;;;;;;;92.53;48.67;;;-0.20;99.90;;;;;;5048458;28;49370;-80
2023/02/15 05:31:16;;;;;;;97.63;51.33;;;-0.20;99.90;;;;;;5050711;28;37293;-80
2023/02/15 05:33:43;;;;;;;86.00;46.47;;;-0.30;99.90;;;;;;5041509;28;47475;-80
2023/02/15 05:36:09;;;;;;;82.73;46.77;;;-0.30;99.90;;;;;;5041512;28;38578;-80
2023/02/15 05:38:39;;;;;;;88.97;49.20;;;-0.20;99.90;;;;;;5041778;28;37835;-80
2023/02/15 05:41:06;;;;;;;92.87;49.70;;;-0.20;99.90;;;;;;5044301;28;34739;-80
2023/02/15 05:43:32;;;;;;;81.43;46.27;;;-0.10;99.90;;;;;;5042436;28;36009;-80
2023/02/15 05:45:58;;;;;;;87.97;49.53;;;-0.10;99.90;;;;;;5038044;28;37251;-81
2023/02/15 05:48:26;;;;;;;86.23;47.50;;;-0.20;99.90;;;;;;5040376;28;37745;-80
2023/02/15 05:51:04;;;;;;;80.20;46.90;;;-0.20;99.90;;;;;;5039062;28;36647;-80
2023/02/15 05:53:34;;;;;;;85.60;44.37;;;-0.20;99.90;;;;;;5041254;28;48670;-80
2023/02/15 05:56:01;;;;;;;86.47;46.87;;;-0.10;99.90;;;;;;5036142;28;36518;-80
2023/02/15 05:58:33;;;;;;;82.93;47.07;;;0.00;99.90;;;;;;5050580;28;47646;-80
2023/02/15 06:01:06;;;;;;;92.55;49.17;;;-0.20;99.90;;;;;;5048165;28;37587;-80
2023/02/15 06:03:32;;;;;;;90.33;48.07;;;-0.10;99.90;;;;;;5040577;28;46988;-80
2023/02/15 06:05:58;;;;;;;96.00;48.20;;;-0.20;99.90;;;;;;5045688;28;36849;-79
2023/02/15 06:08:25;;;;;;;82.83;48.00;;;-0.20;99.90;;;;;;5069119;28;36571;-79
2023/02/15 06:10:51;;;;;;;94.03;50.13;;;-0.30;99.90;;;;;;5045547;28;36623;-79
2023/02/15 06:13:17;;;;;;;105.00;51.97;;;-0.30;99.90;;;;;;5044613;28;39068;-79
2023/02/15 06:15:43;;;;;;;94.03;51.03;;;-0.40;99.90;;;;;;5049888;28;38043;-79
2023/02/15 06:18:09;;;;;;;82.57;46.97;;;-0.40;99.90;;;;;;5046909;28;37317;-79
2023/02/15 06:20:35;;;;;;;98.50;52.10;;;-0.30;99.90;;;;;;5041258;28;37248;-79
2023/02/15 06:23:01;;;;;;;86.50;48.77;;;-0.30;99.90;;;;;;5047925;28;37994;-78
2023/02/15 06:25:28;;;;;;;94.90;47.57;;;-0.30;99.90;;;;;;5043507;28;48255;-79
2023/02/15 06:27:54;;;;;;;91.47;47.83;;;-0.30;99.90;;;;;;5046060;28;37809;-78
2023/02/15 06:30:20;;;;;;;98.33;50.80;;;-0.30;99.90;;;;;;5042170;28;36688;-80
2023/02/15 06:32:47;;;;;;;94.63;50.53;;;-0.30;99.90;;;;;;5046964;28;37560;-79
2023/02/15 06:35:13;;;;;;;102.80;52.70;;;-0.30;99.90;;;;;;5053856;28;38844;-81
2023/02/15 06:37:39;;;;;;;94.83;50.37;;;-0.30;99.90;;;;;;5056486;28;38272;-80
2023/02/15 06:40:06;;;;;;;98.63;49.60;;;-0.30;99.90;;;;;;5049099;28;36676;-81
2023/02/15 06:42:32;;;;;;;90.80;49.23;;;-0.40;99.90;;;;;;5048808;28;37820;-80
2023/02/15 06:45:00;;;;;;;100.60;52.33;;;-0.30;99.90;;;;;;5054821;28;37667;-81
2023/02/15 06:47:26;;;;;;;106.23;53.67;;;-0.20;99.90;;;;;;5056168;28;38346;-81
2023/02/15 06:50:16;;;;;;;111.30;56.63;;;-0.20;99.90;;;;;;5051931;28;36700;-83
2023/02/15 06:52:42;;;;;;;104.77;53.47;;;-0.10;99.90;;;;;;5068799;28;48342;-82
2023/02/15 06:55:15;;;;;;;109.97;53.87;;;-0.20;99.90;;;;;;5064596;28;38133;-82
2023/02/15 06:57:50;;;;;;;101.20;54.22;;;0.00;99.90;;;;;;5062855;28;38447;-83
2023/02/15 07:00:18;;;;;;;140.07;64.93;;;0.10;99.90;;;;;;5055370;28;37836;-82
2023/02/15 07:02:55;;;;;;;108.97;54.53;;;0.20;99.90;;;;;;5052438;28;38706;-82
2023/02/15 07:05:22;;;;;;;99.47;51.70;;;0.30;99.90;;;;;;5061584;28;39845;-82
2023/02/15 07:07:48;;;;;;;140.47;61.17;;;0.30;99.90;;;;;;5070529;28;37991;-82
2023/02/15 07:10:15;;;;;;;113.97;56.33;;;0.20;99.90;;;;;;5047153;28;37923;-79
2023/02/15 07:12:41;;;;;;;103.20;54.80;;;0.20;99.90;;;;;;5045902;28;37961;-79
2023/02/15 07:15:09;;;;;;;107.53;58.60;;;0.30;99.90;;;;;;5035566;28;39376;-80
2023/02/15 07:17:36;;;;;;;111.10;57.77;;;0.20;99.90;;;;;;5042611;28;39521;-78
2023/02/15 07:20:14;;;;;;;105.07;55.40;;;0.20;99.90;;;;;;5042519;28;36264;-78
2023/02/15 07:22:43;;;;;;;111.87;55.97;;;0.10;99.90;;;;;;5039124;28;48849;-77
2023/02/15 07:25:11;;;;;;;99.93;52.60;;;0.10;99.90;;;;;;5039985;28;38177;-79
2023/02/15 07:27:37;;;;;;;126.47;61.70;;;0.20;99.90;;;;;;5037018;28;38087;-78
2023/02/15 07:30:05;;;;;;;113.87;58.67;;;0.30;99.90;;;;;;5034731;28;37730;-78
2023/02/15 07:32:32;;;;;;;119.73;57.70;;;0.30;99.90;;;;;;5039470;28;47343;-78
2023/02/15 07:34:58;;;;;;;119.83;59.53;;;0.40;99.90;;;;;;5036118;28;37112;-78
2023/02/15 07:37:25;;;;;;;125.67;63.37;;;0.40;99.90;;;;;;5033374;28;39815;-78
2023/02/15 07:39:51;;;;;;;120.10;61.57;;;0.50;99.90;;;;;;5045934;28;38464;-78
2023/02/15 07:42:19;;;;;;;138.97;65.37;;;0.70;99.90;;;;;;5024555;28;39174;-79
2023/02/15 07:44:46;;;;;;;107.83;58.33;;;0.70;99.90;;;;;;5035322;28;38011;-78
2023/02/15 07:47:12;;;;;;;128.03;63.10;;;0.80;99.90;;;;;;5036348;28;37198;-78
2023/02/15 07:49:38;;;;;;;121.70;60.33;;;0.80;99.90;;;;;;5031791;28;36672;-78
2023/02/15 07:52:04;;;;;;;119.13;62.57;;;0.90;99.90;;;;;;5023293;28;38991;-79
2023/02/15 07:54:30;;;;;;;140.47;67.70;;;1.00;99.90;;;;;;5037138;28;40693;-78
2023/02/15 07:56:56;;;;;;;117.67;61.77;;;1.00;99.90;;;;;;5038434;28;36923;-78
2023/02/15 07:59:23;;;;;;;126.77;64.67;;;1.00;99.90;;;;;;5039180;28;36231;-78
2023/02/15 08:01:50;;;;;;;134.10;68.63;;;1.20;99.90;;;;;;5041957;28;40208;-78
2023/02/15 08:04:17;;;;;;;117.33;62.57;;;1.20;99.90;;;;;;5026610;28;37206;-78
2023/02/15 08:06:43;;;;;;;108.20;58.53;;;1.20;99.90;;;;;;5021018;28;36853;-78
2023/02/15 08:09:10;;;;;;;129.93;66.33;;;1.30;99.90;;;;;;5025573;28;36231;-77
2023/02/15 08:11:39;;;;;;;130.80;65.93;;;1.40;99.90;;;;;;5019398;28;38363;-78
2023/02/15 08:14:12;;;;;;;149.93;75.63;;;1.60;99.90;;;;;;5019934;28;37157;-78
2023/02/15 08:16:49;;;;;;;160.53;77.20;;;1.70;99.90;;;;;;5049269;28;37062;-78
2023/02/15 08:19:21;;;;;;;145.33;72.20;;;1.80;99.90;;;;;;5019279;28;37265;-79
2023/02/15 08:21:50;;;;;;;168.63;78.93;;;1.90;99.90;;;;;;5041830;28;39284;-77
2023/02/15 08:24:19;;;;;;;162.97;80.13;;;2.00;99.90;;;;;;5023705;28;37853;-77
2023/02/15 08:26:46;;;;;;;130.47;70.27;;;2.00;99.90;;;;;;5018186;28;37210;-75
2023/02/15 08:29:14;;;;;;;126.83;69.27;;;2.10;99.90;;;;;;5026990;28;37285;-76
2023/02/15 08:31:43;;;;;;;128.47;70.20;;;2.20;99.90;;;;;;5023623;28;37283;-76
2023/02/15 08:34:13;;;;;;;134.93;71.97;;;2.30;99.90;;;;;;5019801;28;37360;-76
2023/02/15 08:36:39;;;;;;;143.97;74.40;;;2.30;99.90;;;;;;5018320;28;37110;-77
2023/02/15 08:39:06;;;;;;;153.80;77.17;;;2.50;99.90;;;;;;5090017;22;37682;-77
2023/02/15 08:41:35;;;;;;;139.20;73.70;;;2.70;99.90;;;;;;5056215;28;38120;-76
2023/02/15 08:44:04;;;;;;;145.20;75.17;;;2.80;99.90;;;;;;5070293;28;37380;-77
2023/02/15 08:46:33;;;;;;;144.57;77.20;;;3.00;99.90;;;;;;5057567;28;38131;-76
2023/02/15 08:48:59;;;;;;;158.83;79.73;;;3.10;99.90;;;;;;5059537;28;37910;-76
2023/02/15 08:51:28;;;;;;;139.57;78.83;;;3.20;99.90;;;;;;5054834;28;37626;-76
2023/02/15 08:53:56;;;;;;;156.67;82.03;;;3.30;99.90;;;;;;5055425;28;37405;-76
2023/02/15 08:56:29;;;;;;;156.07;80.67;;;3.40;99.90;;;;;;5057711;28;38009;-75
2023/02/15 08:58:56;;;;;;;147.03;83.03;;;3.50;99.90;;;;;;5052960;28;37561;-76
2023/02/15 09:01:24;;;;;;;141.23;77.90;;;3.60;99.90;;;;;;5049545;28;38109;-76
2023/02/15 09:03:55;;;;;;;151.73;82.23;;;3.70;99.90;;;;;;5056663;28;37076;-77
2023/02/15 09:06:24;;;;;;;152.60;83.47;;;3.80;99.90;;;;;;5057254;28;39354;-76
2023/02/15 09:08:51;;;;;;;149.57;81.47;;;3.90;99.90;;;;;;5047444;28;37284;-78
2023/02/15 09:11:27;;;;;;;148.07;80.53;;;3.90;99.90;;;;;;5051162;28;35844;-78
2023/02/15 09:14:01;;;;;;;157.57;80.20;;;4.10;99.90;;;;;;5043584;28;38463;-77
2023/02/15 09:16:30;;;;;;;134.87;77.47;;;4.20;99.90;;;;;;5051065;28;40230;-77
2023/02/15 09:19:04;;;;;;;132.77;76.57;;;4.20;99.90;;;;;;5058821;28;37385;-78
2023/02/15 09:21:31;;;;;;;143.40;78.77;;;4.30;99.90;;;;;;5055681;28;47323;-78
2023/02/15 09:24:00;;;;;;;132.47;76.13;;;4.40;99.90;;;;;;5054475;28;38009;-78
2023/02/15 09:26:29;;;;;;;140.73;77.67;;;4.50;99.90;;;;;;5053028;28;41567;-78
2023/02/15 09:28:57;;;;;;;135.03;72.70;;;4.50;99.90;;;;;;5053714;28;38435;-78
2023/02/15 09:31:25;;;;;;;136.13;79.03;;;4.70;99.90;;;;;;5051501;28;39020;-79
2023/02/15 09:33:55;;;;;;;136.63;78.50;;;4.80;99.90;;;;;;5052011;28;38607;-78
2023/02/15 09:36:27;;;;;;;130.60;75.53;;;4.90;99.90;;;;;;5050654;28;37653;-78
2023/02/15 09:38:57;;;;;;;122.20;70.30;;;5.00;99.90;;;;;;5052736;28;35583;-78
2023/02/15 09:41:45;;;;;;;131.97;75.80;;;5.10;99.90;;;;;;5059356;28;39043;-78
2023/02/15 09:44:17;;;;;;;120.97;69.90;;;5.30;99.90;;;;;;5054149;28;39042;-77
2023/02/15 09:47:08;;;;;;;129.55;73.47;;;5.40;99.90;;;;;;5055271;28;38014;-78
2023/02/15 09:49:55;;;;;;;117.83;68.23;;;5.60;99.90;;;;;;5048547;28;47550;-77
2023/02/15 09:52:39;;;;;;;119.23;64.17;;;5.70;99.90;;;;;;5054282;28;39196;-77
2023/02/15 09:55:17;;;;;;;102.60;60.37;;;5.80;99.90;;;;;;5052031;28;38313;-76
2023/02/15 09:58:38;;;;;;;113.77;65.27;;;5.90;99.90;;;;;;5052376;28;36913;-76
2023/02/15 10:01:11;;;;;;;105.73;63.30;;;6.00;99.90;;;;;;4937972;28;47175;-76
2023/02/15 10:03:46;;;;;;;107.87;60.83;;;6.00;99.90;;;;;;5050882;28;41224;-76
2023/02/15 10:06:44;;;;;;;105.83;60.07;;;6.10;99.90;;;;;;5053705;28;39147;-76
2023/02/15 10:09:38;;;;;;;99.37;58.73;;;6.20;99.90;;;;;;5053500;28;38373;-76
2023/02/15 10:12:30;;;;;;;95.13;57.77;;;6.30;99.90;;;;;;5054191;28;38547;-76
2023/02/15 10:15:09;;;;;;;91.63;55.90;;;6.40;99.90;;;;;;5056698;28;38378;-76
2023/02/15 10:17:53;;;;;;;97.20;57.90;;;6.50;99.90;;;;;;5051623;28;47093;-76
2023/02/15 10:20:55;;;;;;;96.07;56.07;;;6.60;99.90;;;;;;5056476;28;37350;-79
2023/02/15 10:23:34;;;;;;;91.60;56.72;;;6.70;99.90;;;;;;5053260;28;37046;-76
2023/02/15 10:26:22;;;;;;;87.20;52.40;;;6.90;99.90;;;;;;5053573;28;38932;-76
2023/02/15 10:29:11;;;;;;;92.90;55.13;;;6.90;99.90;;;;;;5049045;28;47329;-76
2023/02/15 10:31:46;;;;;;;80.50;49.53;;;7.00;99.90;;;;;;5054080;28;48124;-76
2023/02/15 10:34:24;;;;;;;86.13;53.53;;;7.10;99.90;;;;;;5055756;28;36453;-76
2023/02/15 10:37:14;;;;;;;83.43;50.37;;;7.30;99.90;;;;;;5055697;28;37592;-76
2023/02/15 10:40:03;;;;;;;78.33;48.00;;;7.40;99.90;;;;;;5054850;28;48545;-76
2023/02/15 10:42:58;;;;;;;75.67;48.00;;;7.40;99.90;;;;;;5052754;28;38771;-76
2023/02/15 10:45:54;;;;;;;76.97;47.03;;;7.50;99.90;;;;;;5053635;28;37624;-76
2023/02/15 10:48:26;;;;;;;75.00;45.17;;;7.60;99.90;;;;;;5057673;28;38411;-76
2023/02/15 10:50:59;;;;;;;79.55;47.00;;;7.60;99.90;;;;;;5054301;28;35592;-76
2023/02/15 10:53:43;;;;;;;78.05;47.70;;;7.70;99.90;;;;;;5055659;28;38067;-75
2023/02/15 10:56:26;;;;;;;80.10;44.27;;;7.80;99.90;;;;;;5055252;28;36833;-75
2023/02/15 10:59:15;;;;;;;75.80;44.73;;;7.90;99.90;;;;;;5054224;28;37602;-76
2023/02/15 11:01:58;;;;;;;75.00;44.17;;;7.90;99.90;;;;;;5046886;28;47077;-76
2023/02/15 11:05:03;;;;;;;73.70;45.60;;;8.00;99.90;;;;;;5059077;28;37472;-76
2023/02/15 11:07:40;;;;;;;73.23;43.50;;;8.00;99.90;;;;;;5049974;28;37527;-76
2023/02/15 11:10:39;;;;;;;75.70;45.33;;;8.10;99.90;;;;;;5054578;28;37280;-76
2023/02/15 11:13:11;;;;;;;71.53;43.43;;;8.30;99.90;;;;;;5055645;28;38568;-76
2023/02/15 11:15:41;;;;;;;72.87;42.73;;;8.50;99.90;;;;;;5058931;28;38707;-75
2023/02/15 11:18:26;;;;;;;69.50;42.47;;;8.60;99.90;;;;;;5054129;28;36314;-76
2023/02/15 11:21:01;;;;;;;69.23;44.00;;;8.50;99.90;;;;;;5052316;28;37925;-76
2023/02/15 11:23:28;;;;;;;68.40;42.97;;;8.50;99.90;;;;;;5051506;28;48636;-76
2023/02/15 11:26:01;;;;;;;65.67;40.63;;;8.60;99.90;;;;;;5056125;28;38458;-75
2023/02/15 11:28:54;;;;;;;70.10;41.83;;;8.70;99.90;;;;;;5057980;28;48764;-76
2023/02/15 11:31:26;;;;;;;71.10;41.00;;;8.90;99.90;;;;;;5045528;28;37912;-76
2023/02/15 11:34:02;;;;;;;65.80;41.70;;;8.80;99.90;;;;;;5054832;28;39149;-76
2023/02/15 11:36:34;;;;;;;66.23;40.47;;;8.80;99.90;;;;;;5058771;28;48187;-76
2023/02/15 11:39:13;;;;;;;68.73;40.93;;;8.90;99.90;;;;;;5058567;28;37236;-76
2023/02/15 11:42:18;;;;;;;65.67;41.73;;;8.90;99.90;;;;;;5055482;28;46974;-76
2023/02/15 11:45:07;;;;;;;62.50;39.23;;;8.90;99.90;;;;;;5056374;28;47720;-77
2023/02/15 11:47:33;;;;;;;66.73;42.73;;;9.00;99.90;;;;;;5055276;28;47211;-77
2023/02/15 11:50:00;;;;;;;65.17;42.23;;;9.30;99.90;;;;;;5053617;28;37204;-75
2023/02/15 11:52:26;;;;;;;65.93;40.40;;;9.40;99.90;;;;;;5052083;28;37586;-76
2023/02/15 11:54:53;;;;;;;64.30;40.17;;;9.50;99.90;;;;;;5056354;28;38070;-76
2023/02/15 11:57:41;;;;;;;68.63;40.00;;;9.50;99.90;;;;;;5053128;28;38494;-76
2023/02/15 12:00:15;;;;;;;65.07;40.50;;;9.60;99.90;;;;;;5058010;28;36527;-76
2023/02/15 12:02:46;;;;;;;67.03;39.87;;;9.70;99.90;;;;;;5059035;28;48761;-76
2023/02/15 12:05:18;;;;;;;64.40;39.60;;;9.80;99.90;;;;;;5055159;28;37437;-75
2023/02/15 12:08:03;;;;;;;63.95;39.58;;;9.90;99.90;;;;;;5054210;28;37759;-77
2023/02/15 12:10:48;;;;;;;67.10;39.47;;;10.10;99.90;;;;;;5056272;28;48920;-76
2023/02/15 12:13:19;;;;;;;62.07;38.13;;;10.40;99.90;;;;;;5057804;28;37236;-77
2023/02/15 12:15:57;;;;;;;59.47;38.23;;;10.50;99.90;;;;;;5058431;28;37110;-76
2023/02/15 12:18:44;;;;;;;64.20;40.30;;;10.50;99.90;;;;;;5054110;28;37474;-78
2023/02/15 12:21:29;;;;;;;67.27;38.43;;;10.70;99.90;;;;;;5061867;28;37830;-78
2023/02/15 12:24:03;;;;;;;63.70;38.95;;;10.80;99.90;;;;;;5061367;28;37973;-78
2023/02/15 12:26:32;;;;;;;57.60;38.20;;;10.70;99.90;;;;;;5069808;28;47384;-77
2023/02/15 12:29:01;;;;;;;58.27;37.23;;;10.60;99.90;;;;;;5069090;28;36962;-77
2023/02/15 12:31:32;;;;;;;58.17;38.00;;;10.60;99.90;;;;;;5069465;28;48611;-77
2023/02/15 12:34:02;;;;;;;60.10;36.57;;;10.50;99.90;;;;;;5069621;28;37743;-77
2023/02/15 12:36:50;;;;;;;56.47;36.53;;;10.50;99.90;;;;;;5071836;28;48198;-77
2023/02/15 12:39:21;;;;;;;59.97;37.40;;;10.40;99.90;;;;;;5073168;28;37840;-77
2023/02/15 12:41:54;;;;;;;54.47;35.35;;;10.60;99.90;;;;;;5068744;28;37908;-77
2023/02/15 12:44:25;;;;;;;58.72;36.35;;;10.70;99.90;;;;;;5068835;28;37535;-77
2023/02/15 12:47:15;;;;;;;62.88;37.63;;;10.90;99.90;;;;;;5067263;28;38366;-76
2023/02/15 12:49:42;;;;;;;59.80;37.42;;;10.90;99.90;;;;;;5070638;28;47126;-77
2023/02/15 12:52:17;;;;;;;59.45;38.42;;;10.90;99.90;;;;;;5069476;28;36560;-77
2023/02/15 12:54:44;;;;;;;55.70;37.42;;;10.80;99.90;;;;;;5067814;28;38621;-77
2023/02/15 12:57:25;;;;;;;61.40;38.95;;;10.90;99.90;;;;;;5065972;28;37794;-76
2023/02/15 12:59:54;;;;;;;62.00;39.65;;;11.00;99.90;;;;;;5066798;28;37229;-76
2023/02/15 13:02:24;;;;;;;58.42;37.60;;;11.10;99.90;;;;;;5070930;28;38341;-77
2023/02/15 13:04:52;;;;;;;62.60;37.83;;;11.00;99.90;;;;;;5076525;28;37917;-77
2023/02/15 13:07:20;;;;;;;60.67;36.65;;;11.20;99.90;;;;;;5069831;28;38914;-77
2023/02/15 13:09:46;;;;;;;57.88;37.05;;;11.30;99.90;;;;;;5071011;28;37118;-77
2023/02/15 13:12:23;;;;;;;53.75;35.22;;;11.20;99.90;;;;;;5069587;28;36198;-76